Fairfield, IL (62837)

5:17 PM CST on December 07, 2016 (GMT -0600)
Uptown | | Change Station

Elev 441 ft 38.38 °N, 88.36 °W | Updated 1 minute ago

Overcast
Overcast
35.9 °F
Feels Like 36 °F
N
0.0
Wind Variable Wind from NW
Gusts 1.0 mph

Today
High -- | Low -- °F
--% Chance of Precip.
Yesterday
High -- | Low -- °F
Precip. -- in
Pressure 30.22 in
Visibility 10.0 miles
Clouds Overcast 9000 ft
Windchill 36 °F
Dew Point 25 °F
Humidity 64%
Rainfall 0.00 in
Snow Depth Not available.
6:57 AM 4:32 PM
First Quarter, 57% visible
METAR KFWC 072255Z AUTO 00000KT 10SM OVC090 02/M05 A3022 RMK AO1 T00201052
Pressure 30.22 in
Visibility 10.0 miles
Clouds Overcast 9000 ft
Windchill 36 °F
Dew Point 25 °F
Humidity 64%
Rainfall 0.00 in
Snow Depth Not available.
6:57 AM 4:32 PM
First Quarter, 57% visible
METAR KFWC 072255Z AUTO 00000KT 10SM OVC090 02/M05 A3022 RMK AO1 T00201052

10-Day Weather Forecast

Almanac

Astronomy

Dec. 07, 2016 Rise Set
Actual Time
Civil Twilight
Nautical Twilight
Astronomical Twilight
Moon
Length of Visible Light
Length of Day
Tomorrow will be .
, % of the Moon is Illuminated

Today's Extremes

State Highs State Lows

Community

WunderPhotos

Upload Photos

1,956,216 photos uploaded!

WunderBlog® & News

Nearby

Air Quality

  Air Quality AQ Index Pollutant
Not available.

Snow Depth

Station Depth Elevation

Earthquake Activity

City Distance Mag. Time & Date
Minimum magnitude displayed is 2.5.

Coastal Water Temperatures

Place Temperature

Stations

Nearby Weather Stations

Station Location Temp. Windchill Dew Point Humidity Wind Precip. Elev Updated Type
                   

Watches & Warnings

There are currently no watches in effect.